Accueil
METAR-TAF:

METAR-TAF

Aéroports :

Beaver Island Airport

Beaver Island, Michigan, États-Unis

latitude: 45-41-32N, longitude: 085-33-59W, altitude: 204 m

Observation

Le bulletin a été fait il y a 28 minutes, à 07:15 UTC
Vent 5 kt de nord-est
Température 11°C
Humidité 100%
Pression 1011 hPa
Visibilité: 16.1 km
Ciel couvert à une hauteur de 900 ft

METAR: KSJX 210715Z AUTO 04005KT 10SM OVC009 11/11 A2984 RMK AO2 T01100110

Heure: 03:43 (07:43 UTC)


TAF: absent

Observations et prévisions météorologiques de plus de 4000 aéroports (messages METAR et TAF).

Les stations disponibles sont représentées par des disques jaunes et rouges sur la carte.

Passer la souris dessus pour voir le nom de la station.

Cliquer dessus pour voir les observations et prévisions météorologiques.

Pour changer de carte: cliquez sur les boutons verts avec une croix noire pour zoomer, sur le bouton vert avec un tiret pour effectuer un zoom arrière, ou sur les flèches vertes pour les cartes adjacentes.


METAR-TAF: